sensor_id;sensor_type;location;lat;lon;timestamp;P1;durP1;ratioP1;P2;durP2;ratioP2
11211;SDS011;5663;50.864;12.096;2022-11-20T00:01:13;35.67;;;18.87;;
11211;SDS011;5663;50.864;12.096;2022-11-20T00:03:46;33.40;;;17.90;;
11211;SDS011;5663;50.864;12.096;2022-11-20T00:06:14;28.80;;;15.97;;
11211;SDS011;5663;50.864;12.096;2022-11-20T00:08:43;33.27;;;16.83;;
11211;SDS011;5663;50.864;12.096;2022-11-20T00:11:13;25.40;;;15.67;;
11211;SDS011;5663;50.864;12.096;2022-11-20T00:13:42;32.20;;;16.73;;
11211;SDS011;5663;50.864;12.096;2022-11-20T00:16:11;30.37;;;16.10;;
11211;SDS011;5663;50.864;12.096;2022-11-20T00:18:40;31.00;;;17.13;;
11211;SDS011;5663;50.864;12.096;2022-11-20T00:21:10;32.73;;;18.17;;
11211;SDS011;5663;50.864;12.096;2022-11-20T00:23:38;31.53;;;17.27;;
11211;SDS011;5663;50.864;12.096;2022-11-20T00:26:07;29.93;;;17.07;;
11211;SDS011;5663;50.864;12.096;2022-11-20T00:28:38;33.87;;;17.37;;
11211;SDS011;5663;50.864;12.096;2022-11-20T00:31:06;31.17;;;17.23;;
11211;SDS011;5663;50.864;12.096;2022-11-20T00:33:36;30.27;;;15.90;;
11211;SDS011;5663;50.864;12.096;2022-11-20T00:36:05;32.77;;;18.37;;
11211;SDS011;5663;50.864;12.096;2022-11-20T00:38:34;33.80;;;18.30;;
11211;SDS011;5663;50.864;12.096;2022-11-20T00:41:03;31.93;;;16.50;;
11211;SDS011;5663;50.864;12.096;2022-11-20T00:43:32;33.00;;;17.27;;
11211;SDS011;5663;50.864;12.096;2022-11-20T00:46:03;29.50;;;15.83;;
11211;SDS011;5663;50.864;12.096;2022-11-20T00:48:33;33.00;;;18.40;;
11211;SDS011;5663;50.864;12.096;2022-11-20T00:51:01;30.07;;;16.30;;
11211;SDS011;5663;50.864;12.096;2022-11-20T00:53:29;33.63;;;18.30;;
11211;SDS011;5663;50.864;12.096;2022-11-20T00:55:57;29.23;;;16.37;;
11211;SDS011;5663;50.864;12.096;2022-11-20T00:58:28;26.47;;;15.80;;
11211;SDS011;5663;50.864;12.096;2022-11-20T01:00:59;33.13;;;17.30;;
11211;SDS011;5663;50.864;12.096;2022-11-20T01:03:31;30.67;;;17.30;;
11211;SDS011;5663;50.864;12.096;2022-11-20T01:06:00;31.90;;;17.87;;
11211;SDS011;5663;50.864;12.096;2022-11-20T01:08:29;33.37;;;17.53;;
11211;SDS011;5663;50.864;12.096;2022-11-20T01:10:59;33.50;;;17.43;;
11211;SDS011;5663;50.864;12.096;2022-11-20T01:13:29;37.37;;;18.80;;
11211;SDS011;5663;50.864;12.096;2022-11-20T01:16:07;32.63;;;18.03;;
11211;SDS011;5663;50.864;12.096;2022-11-20T01:18:39;35.57;;;18.43;;
11211;SDS011;5663;50.864;12.096;2022-11-20T01:21:10;31.33;;;17.37;;
11211;SDS011;5663;50.864;12.096;2022-11-20T01:23:40;29.67;;;16.60;;
11211;SDS011;5663;50.864;12.096;2022-11-20T01:26:09;33.53;;;17.10;;
11211;SDS011;5663;50.864;12.096;2022-11-20T01:28:38;30.70;;;16.93;;
11211;SDS011;5663;50.864;12.096;2022-11-20T01:31:11;31.63;;;16.73;;
11211;SDS011;5663;50.864;12.096;2022-11-20T01:33:44;30.87;;;16.23;;
11211;SDS011;5663;50.864;12.096;2022-11-20T01:36:13;30.87;;;16.93;;
11211;SDS011;5663;50.864;12.096;2022-11-20T01:38:42;31.30;;;17.83;;
11211;SDS011;5663;50.864;12.096;2022-11-20T01:41:10;29.90;;;16.93;;
11211;SDS011;5663;50.864;12.096;2022-11-20T01:43:59;31.57;;;17.20;;
11211;SDS011;5663;50.864;12.096;2022-11-20T01:46:27;31.03;;;16.80;;
11211;SDS011;5663;50.864;12.096;2022-11-20T01:48:58;27.80;;;15.00;;
11211;SDS011;5663;50.864;12.096;2022-11-20T01:51:38;30.40;;;17.17;;
11211;SDS011;5663;50.864;12.096;2022-11-20T01:54:09;32.27;;;17.20;;
11211;SDS011;5663;50.864;12.096;2022-11-20T01:56:40;30.57;;;16.63;;
11211;SDS011;5663;50.864;12.096;2022-11-20T01:59:12;32.43;;;17.30;;
11211;SDS011;5663;50.864;12.096;2022-11-20T02:01:43;30.07;;;16.67;;
11211;SDS011;5663;50.864;12.096;2022-11-20T02:04:12;36.83;;;18.17;;
11211;SDS011;5663;50.864;12.096;2022-11-20T02:06:43;32.40;;;16.50;;
11211;SDS011;5663;50.864;12.096;2022-11-20T02:09:15;33.03;;;16.87;;
11211;SDS011;5663;50.864;12.096;2022-11-20T02:11:44;30.73;;;15.60;;
11211;SDS011;5663;50.864;12.096;2022-11-20T02:14:11;30.53;;;16.63;;
11211;SDS011;5663;50.864;12.096;2022-11-20T02:16:40;27.83;;;15.57;;
11211;SDS011;5663;50.864;12.096;2022-11-20T02:19:15;33.70;;;16.53;;
11211;SDS011;5663;50.864;12.096;2022-11-20T02:21:51;27.57;;;16.57;;
11211;SDS011;5663;50.864;12.096;2022-11-20T02:24:28;32.43;;;17.53;;
11211;SDS011;5663;50.864;12.096;2022-11-20T02:26:56;29.90;;;16.60;;
11211;SDS011;5663;50.864;12.096;2022-11-20T02:29:30;29.33;;;16.23;;
11211;SDS011;5663;50.864;12.096;2022-11-20T02:32:01;29.70;;;15.43;;
11211;SDS011;5663;50.864;12.096;2022-11-20T02:34:29;33.50;;;16.50;;
11211;SDS011;5663;50.864;12.096;2022-11-20T02:36:57;30.83;;;18.20;;
11211;SDS011;5663;50.864;12.096;2022-11-20T02:39:28;31.77;;;16.73;;
11211;SDS011;5663;50.864;12.096;2022-11-20T02:41:56;29.70;;;15.93;;
11211;SDS011;5663;50.864;12.096;2022-11-20T02:44:24;29.20;;;15.30;;
11211;SDS011;5663;50.864;12.096;2022-11-20T02:46:52;27.73;;;15.80;;
11211;SDS011;5663;50.864;12.096;2022-11-20T02:49:19;28.27;;;16.10;;
11211;SDS011;5663;50.864;12.096;2022-11-20T02:51:47;27.10;;;16.23;;
11211;SDS011;5663;50.864;12.096;2022-11-20T02:54:15;31.77;;;18.63;;
11211;SDS011;5663;50.864;12.096;2022-11-20T02:56:45;30.70;;;16.37;;
11211;SDS011;5663;50.864;12.096;2022-11-20T02:59:12;30.23;;;16.13;;
11211;SDS011;5663;50.864;12.096;2022-11-20T03:01:40;32.57;;;17.10;;
11211;SDS011;5663;50.864;12.096;2022-11-20T03:04:08;27.00;;;15.17;;
11211;SDS011;5663;50.864;12.096;2022-11-20T03:06:36;29.80;;;17.40;;
11211;SDS011;5663;50.864;12.096;2022-11-20T03:09:03;32.40;;;16.50;;
11211;SDS011;5663;50.864;12.096;2022-11-20T03:11:31;31.17;;;15.77;;
11211;SDS011;5663;50.864;12.096;2022-11-20T03:14:02;33.10;;;16.80;;
11211;SDS011;5663;50.864;12.096;2022-11-20T03:16:30;30.57;;;16.67;;
11211;SDS011;5663;50.864;12.096;2022-11-20T03:18:59;30.63;;;16.63;;
11211;SDS011;5663;50.864;12.096;2022-11-20T03:21:27;33.40;;;16.93;;
11211;SDS011;5663;50.864;12.096;2022-11-20T03:23:54;30.17;;;16.47;;
11211;SDS011;5663;50.864;12.096;2022-11-20T03:26:23;29.73;;;16.57;;
11211;SDS011;5663;50.864;12.096;2022-11-20T03:28:53;30.30;;;16.40;;
11211;SDS011;5663;50.864;12.096;2022-11-20T03:31:25;32.67;;;17.37;;
11211;SDS011;5663;50.864;12.096;2022-11-20T03:33:55;28.77;;;15.73;;
11211;SDS011;5663;50.864;12.096;2022-11-20T03:36:23;29.07;;;15.63;;
11211;SDS011;5663;50.864;12.096;2022-11-20T03:38:52;29.20;;;16.23;;
11211;SDS011;5663;50.864;12.096;2022-11-20T03:41:21;33.37;;;16.03;;
11211;SDS011;5663;50.864;12.096;2022-11-20T03:43:50;29.93;;;16.57;;
11211;SDS011;5663;50.864;12.096;2022-11-20T03:46:18;27.67;;;15.23;;
11211;SDS011;5663;50.864;12.096;2022-11-20T03:48:48;29.33;;;16.20;;
11211;SDS011;5663;50.864;12.096;2022-11-20T03:51:16;32.27;;;17.37;;
11211;SDS011;5663;50.864;12.096;2022-11-20T03:53:49;30.37;;;16.07;;
11211;SDS011;5663;50.864;12.096;2022-11-20T03:56:19;29.33;;;17.30;;
11211;SDS011;5663;50.864;12.096;2022-11-20T03:58:49;32.47;;;15.83;;
11211;SDS011;5663;50.864;12.096;2022-11-20T04:01:17;31.60;;;16.80;;
11211;SDS011;5663;50.864;12.096;2022-11-20T04:03:48;29.27;;;14.83;;
11211;SDS011;5663;50.864;12.096;2022-11-20T04:06:17;27.70;;;15.83;;
11211;SDS011;5663;50.864;12.096;2022-11-20T04:08:46;29.53;;;16.00;;
11211;SDS011;5663;50.864;12.096;2022-11-20T04:11:15;30.70;;;16.87;;
11211;SDS011;5663;50.864;12.096;2022-11-20T04:13:45;28.33;;;15.80;;
11211;SDS011;5663;50.864;12.096;2022-11-20T04:16:15;30.13;;;15.63;;
11211;SDS011;5663;50.864;12.096;2022-11-20T04:18:44;28.07;;;15.27;;
11211;SDS011;5663;50.864;12.096;2022-11-20T04:21:13;28.73;;;15.73;;
11211;SDS011;5663;50.864;12.096;2022-11-20T04:23:41;28.20;;;15.43;;
11211;SDS011;5663;50.864;12.096;2022-11-20T04:26:10;29.97;;;15.37;;
11211;SDS011;5663;50.864;12.096;2022-11-20T04:28:39;29.53;;;16.60;;
11211;SDS011;5663;50.864;12.096;2022-11-20T04:31:09;27.17;;;14.93;;
11211;SDS011;5663;50.864;12.096;2022-11-20T04:33:38;26.70;;;14.90;;
11211;SDS011;5663;50.864;12.096;2022-11-20T04:36:07;27.50;;;15.17;;
11211;SDS011;5663;50.864;12.096;2022-11-20T04:38:40;27.27;;;14.90;;
11211;SDS011;5663;50.864;12.096;2022-11-20T04:41:09;27.80;;;14.80;;
11211;SDS011;5663;50.864;12.096;2022-11-20T04:43:41;29.33;;;15.87;;
11211;SDS011;5663;50.864;12.096;2022-11-20T04:46:13;27.40;;;14.73;;
11211;SDS011;5663;50.864;12.096;2022-11-20T04:48:40;26.03;;;14.47;;
11211;SDS011;5663;50.864;12.096;2022-11-20T04:51:08;27.13;;;15.03;;
11211;SDS011;5663;50.864;12.096;2022-11-20T04:53:37;28.17;;;14.40;;
11211;SDS011;5663;50.864;12.096;2022-11-20T04:56:07;27.63;;;14.10;;
11211;SDS011;5663;50.864;12.096;2022-11-20T04:58:37;32.57;;;16.00;;
11211;SDS011;5663;50.864;12.096;2022-11-20T05:01:05;26.50;;;15.23;;
11211;SDS011;5663;50.864;12.096;2022-11-20T05:03:35;30.33;;;15.33;;
11211;SDS011;5663;50.864;12.096;2022-11-20T05:06:03;28.17;;;15.97;;
11211;SDS011;5663;50.864;12.096;2022-11-20T05:08:33;26.00;;;13.90;;
11211;SDS011;5663;50.864;12.096;2022-11-20T05:11:02;27.93;;;15.00;;
11211;SDS011;5663;50.864;12.096;2022-11-20T05:13:32;28.77;;;15.23;;
11211;SDS011;5663;50.864;12.096;2022-11-20T05:16:03;26.27;;;14.30;;
11211;SDS011;5663;50.864;12.096;2022-11-20T05:18:32;28.17;;;14.07;;
11211;SDS011;5663;50.864;12.096;2022-11-20T05:21:00;28.03;;;15.07;;
11211;SDS011;5663;50.864;12.096;2022-11-20T05:23:29;27.90;;;14.13;;
11211;SDS011;5663;50.864;12.096;2022-11-20T05:26:00;24.80;;;14.57;;
11211;SDS011;5663;50.864;12.096;2022-11-20T05:28:29;26.30;;;14.70;;
11211;SDS011;5663;50.864;12.096;2022-11-20T05:31:04;27.07;;;14.63;;
11211;SDS011;5663;50.864;12.096;2022-11-20T05:33:33;28.60;;;14.93;;
11211;SDS011;5663;50.864;12.096;2022-11-20T05:36:02;26.70;;;14.17;;
11211;SDS011;5663;50.864;12.096;2022-11-20T05:38:30;28.50;;;15.80;;
11211;SDS011;5663;50.864;12.096;2022-11-20T05:41:05;25.43;;;13.50;;
11211;SDS011;5663;50.864;12.096;2022-11-20T05:43:33;33.13;;;16.40;;
11211;SDS011;5663;50.864;12.096;2022-11-20T05:46:02;29.77;;;15.63;;
11211;SDS011;5663;50.864;12.096;2022-11-20T05:48:31;31.97;;;16.37;;
11211;SDS011;5663;50.864;12.096;2022-11-20T05:51:01;32.17;;;16.60;;
11211;SDS011;5663;50.864;12.096;2022-11-20T05:53:30;29.17;;;15.57;;
11211;SDS011;5663;50.864;12.096;2022-11-20T05:55:59;29.10;;;16.63;;
11211;SDS011;5663;50.864;12.096;2022-11-20T05:58:28;28.53;;;15.37;;
11211;SDS011;5663;50.864;12.096;2022-11-20T06:01:02;27.47;;;15.07;;
11211;SDS011;5663;50.864;12.096;2022-11-20T06:03:34;26.57;;;14.73;;
11211;SDS011;5663;50.864;12.096;2022-11-20T06:06:03;30.40;;;15.10;;
11211;SDS011;5663;50.864;12.096;2022-11-20T06:08:32;26.87;;;15.60;;
11211;SDS011;5663;50.864;12.096;2022-11-20T06:11:02;24.83;;;13.83;;
11211;SDS011;5663;50.864;12.096;2022-11-20T06:13:31;26.87;;;14.30;;
11211;SDS011;5663;50.864;12.096;2022-11-20T06:15:59;27.43;;;14.37;;
11211;SDS011;5663;50.864;12.096;2022-11-20T06:18:27;52.87;;;23.97;;
11211;SDS011;5663;50.864;12.096;2022-11-20T06:21:02;61.60;;;27.37;;
11211;SDS011;5663;50.864;12.096;2022-11-20T06:23:31;51.83;;;25.30;;
11211;SDS011;5663;50.864;12.096;2022-11-20T06:26:01;38.87;;;18.80;;
11211;SDS011;5663;50.864;12.096;2022-11-20T06:28:29;34.00;;;16.90;;
11211;SDS011;5663;50.864;12.096;2022-11-20T06:30:57;27.30;;;14.90;;
11211;SDS011;5663;50.864;12.096;2022-11-20T06:33:25;32.23;;;16.60;;
11211;SDS011;5663;50.864;12.096;2022-11-20T06:35:55;32.07;;;16.00;;
11211;SDS011;5663;50.864;12.096;2022-11-20T06:38:25;26.87;;;16.10;;
11211;SDS011;5663;50.864;12.096;2022-11-20T06:40:54;27.63;;;15.13;;
11211;SDS011;5663;50.864;12.096;2022-11-20T06:43:22;26.50;;;15.33;;
11211;SDS011;5663;50.864;12.096;2022-11-20T06:45:51;28.03;;;15.33;;
11211;SDS011;5663;50.864;12.096;2022-11-20T06:48:20;25.87;;;14.33;;
11211;SDS011;5663;50.864;12.096;2022-11-20T06:50:49;27.13;;;14.87;;
11211;SDS011;5663;50.864;12.096;2022-11-20T06:53:16;33.77;;;15.60;;
11211;SDS011;5663;50.864;12.096;2022-11-20T06:55:46;30.73;;;14.73;;
11211;SDS011;5663;50.864;12.096;2022-11-20T06:58:15;30.97;;;15.43;;
11211;SDS011;5663;50.864;12.096;2022-11-20T07:00:43;28.43;;;15.60;;
11211;SDS011;5663;50.864;12.096;2022-11-20T07:03:11;28.77;;;15.40;;
11211;SDS011;5663;50.864;12.096;2022-11-20T07:05:39;28.63;;;15.70;;
11211;SDS011;5663;50.864;12.096;2022-11-20T07:08:07;27.90;;;15.23;;
11211;SDS011;5663;50.864;12.096;2022-11-20T07:10:36;25.77;;;14.93;;
11211;SDS011;5663;50.864;12.096;2022-11-20T07:13:05;27.63;;;14.87;;
11211;SDS011;5663;50.864;12.096;2022-11-20T07:15:33;28.83;;;15.03;;
11211;SDS011;5663;50.864;12.096;2022-11-20T07:18:01;29.90;;;15.70;;
11211;SDS011;5663;50.864;12.096;2022-11-20T07:20:29;29.70;;;15.27;;
11211;SDS011;5663;50.864;12.096;2022-11-20T07:22:57;30.33;;;14.50;;
11211;SDS011;5663;50.864;12.096;2022-11-20T07:25:26;24.43;;;13.10;;
11211;SDS011;5663;50.864;12.096;2022-11-20T07:27:56;25.87;;;13.90;;
11211;SDS011;5663;50.864;12.096;2022-11-20T07:30:26;25.97;;;13.67;;
11211;SDS011;5663;50.864;12.096;2022-11-20T07:32:55;31.23;;;16.07;;
11211;SDS011;5663;50.864;12.096;2022-11-20T07:35:24;23.50;;;14.23;;
11211;SDS011;5663;50.864;12.096;2022-11-20T07:37:52;29.40;;;16.17;;
11211;SDS011;5663;50.864;12.096;2022-11-20T07:40:20;23.03;;;12.93;;
11211;SDS011;5663;50.864;12.096;2022-11-20T07:42:48;29.07;;;15.43;;
11211;SDS011;5663;50.864;12.096;2022-11-20T07:45:16;30.87;;;16.97;;
11211;SDS011;5663;50.864;12.096;2022-11-20T07:47:46;31.63;;;16.93;;
11211;SDS011;5663;50.864;12.096;2022-11-20T07:50:13;26.10;;;14.87;;
11211;SDS011;5663;50.864;12.096;2022-11-20T07:52:42;25.93;;;15.07;;
11211;SDS011;5663;50.864;12.096;2022-11-20T07:55:10;28.33;;;15.63;;
11211;SDS011;5663;50.864;12.096;2022-11-20T07:57:37;29.23;;;16.57;;
11211;SDS011;5663;50.864;12.096;2022-11-20T08:00:06;31.37;;;17.07;;
11211;SDS011;5663;50.864;12.096;2022-11-20T08:02:36;33.97;;;17.47;;
11211;SDS011;5663;50.864;12.096;2022-11-20T08:05:07;28.40;;;15.37;;
11211;SDS011;5663;50.864;12.096;2022-11-20T08:07:37;25.97;;;15.20;;
11211;SDS011;5663;50.864;12.096;2022-11-20T08:10:06;29.40;;;15.77;;
11211;SDS011;5663;50.864;12.096;2022-11-20T08:12:42;28.30;;;14.17;;
11211;SDS011;5663;50.864;12.096;2022-11-20T08:15:29;32.37;;;16.53;;
11211;SDS011;5663;50.864;12.096;2022-11-20T08:18:01;36.63;;;19.07;;
11211;SDS011;5663;50.864;12.096;2022-11-20T08:20:31;39.20;;;20.87;;
11211;SDS011;5663;50.864;12.096;2022-11-20T08:23:03;37.03;;;18.80;;
11211;SDS011;5663;50.864;12.096;2022-11-20T08:25:32;37.23;;;19.13;;
11211;SDS011;5663;50.864;12.096;2022-11-20T08:28:02;34.30;;;18.93;;
11211;SDS011;5663;50.864;12.096;2022-11-20T08:30:31;30.97;;;17.17;;
11211;SDS011;5663;50.864;12.096;2022-11-20T08:33:00;40.10;;;21.07;;
11211;SDS011;5663;50.864;12.096;2022-11-20T08:35:33;39.03;;;20.13;;
11211;SDS011;5663;50.864;12.096;2022-11-20T08:38:02;46.37;;;23.00;;
11211;SDS011;5663;50.864;12.096;2022-11-20T08:40:31;39.70;;;20.50;;
11211;SDS011;5663;50.864;12.096;2022-11-20T08:42:59;38.67;;;21.07;;
11211;SDS011;5663;50.864;12.096;2022-11-20T08:45:27;32.80;;;17.10;;
11211;SDS011;5663;50.864;12.096;2022-11-20T08:47:59;36.27;;;19.47;;
11211;SDS011;5663;50.864;12.096;2022-11-20T08:50:28;38.57;;;19.53;;
11211;SDS011;5663;50.864;12.096;2022-11-20T08:53:03;39.20;;;21.60;;
11211;SDS011;5663;50.864;12.096;2022-11-20T08:55:31;43.13;;;21.97;;
11211;SDS011;5663;50.864;12.096;2022-11-20T08:58:02;37.17;;;21.20;;
11211;SDS011;5663;50.864;12.096;2022-11-20T09:00:30;40.47;;;21.93;;
11211;SDS011;5663;50.864;12.096;2022-11-20T09:02:59;43.03;;;22.47;;
11211;SDS011;5663;50.864;12.096;2022-11-20T09:05:27;43.03;;;21.73;;
11211;SDS011;5663;50.864;12.096;2022-11-20T09:07:55;37.93;;;21.27;;
11211;SDS011;5663;50.864;12.096;2022-11-20T09:10:25;36.57;;;20.03;;
11211;SDS011;5663;50.864;12.096;2022-11-20T09:12:54;43.27;;;22.73;;
11211;SDS011;5663;50.864;12.096;2022-11-20T09:15:22;36.00;;;19.17;;
11211;SDS011;5663;50.864;12.096;2022-11-20T09:17:52;44.40;;;22.17;;
11211;SDS011;5663;50.864;12.096;2022-11-20T09:20:19;35.77;;;19.97;;
11211;SDS011;5663;50.864;12.096;2022-11-20T09:22:48;46.60;;;23.27;;
11211;SDS011;5663;50.864;12.096;2022-11-20T09:25:16;41.97;;;21.60;;
11211;SDS011;5663;50.864;12.096;2022-11-20T09:27:46;32.10;;;17.30;;
11211;SDS011;5663;50.864;12.096;2022-11-20T09:30:14;31.37;;;15.87;;
11211;SDS011;5663;50.864;12.096;2022-11-20T09:32:43;32.50;;;16.77;;
11211;SDS011;5663;50.864;12.096;2022-11-20T09:35:10;34.77;;;17.07;;
11211;SDS011;5663;50.864;12.096;2022-11-20T09:37:40;30.97;;;16.97;;
11211;SDS011;5663;50.864;12.096;2022-11-20T09:40:09;34.90;;;18.33;;
11211;SDS011;5663;50.864;12.096;2022-11-20T09:42:49;28.80;;;16.80;;
11211;SDS011;5663;50.864;12.096;2022-11-20T09:45:23;28.50;;;16.07;;
11211;SDS011;5663;50.864;12.096;2022-11-20T09:50:49;29.27;;;17.10;;
11211;SDS011;5663;50.864;12.096;2022-11-20T09:53:28;27.97;;;16.30;;
11211;SDS011;5663;50.864;12.096;2022-11-20T09:56:02;25.23;;;15.03;;
11211;SDS011;5663;50.864;12.096;2022-11-20T09:58:33;30.13;;;16.53;;
11211;SDS011;5663;50.864;12.096;2022-11-20T10:01:08;31.47;;;16.70;;
11211;SDS011;5663;50.864;12.096;2022-11-20T10:03:41;33.90;;;18.47;;
11211;SDS011;5663;50.864;12.096;2022-11-20T10:06:17;32.83;;;18.73;;
11211;SDS011;5663;50.864;12.096;2022-11-20T10:08:50;30.30;;;17.17;;
11211;SDS011;5663;50.864;12.096;2022-11-20T10:11:29;28.50;;;16.83;;
11211;SDS011;5663;50.864;12.096;2022-11-20T10:14:04;27.03;;;16.50;;
11211;SDS011;5663;50.864;12.096;2022-11-20T10:16:44;28.47;;;16.53;;
11211;SDS011;5663;50.864;12.096;2022-11-20T10:19:32;22.83;;;13.73;;
11211;SDS011;5663;50.864;12.096;2022-11-20T10:22:15;27.43;;;15.23;;
11211;SDS011;5663;50.864;12.096;2022-11-20T10:24:59;27.70;;;15.50;;
11211;SDS011;5663;50.864;12.096;2022-11-20T10:27:41;25.73;;;14.80;;
11211;SDS011;5663;50.864;12.096;2022-11-20T10:30:31;28.30;;;16.33;;
11211;SDS011;5663;50.864;12.096;2022-11-20T10:33:08;28.07;;;16.30;;
11211;SDS011;5663;50.864;12.096;2022-11-20T10:35:42;29.37;;;17.87;;
11211;SDS011;5663;50.864;12.096;2022-11-20T10:38:14;27.70;;;16.43;;
11211;SDS011;5663;50.864;12.096;2022-11-20T10:40:48;25.90;;;15.70;;
11211;SDS011;5663;50.864;12.096;2022-11-20T10:43:41;26.43;;;16.20;;
11211;SDS011;5663;50.864;12.096;2022-11-20T10:46:12;31.57;;;17.00;;
11211;SDS011;5663;50.864;12.096;2022-11-20T10:48:44;29.57;;;17.53;;
11211;SDS011;5663;50.864;12.096;2022-11-20T10:51:16;30.00;;;16.93;;
11211;SDS011;5663;50.864;12.096;2022-11-20T10:53:57;28.83;;;17.83;;
11211;SDS011;5663;50.864;12.096;2022-11-20T10:56:33;33.60;;;17.97;;
11211;SDS011;5663;50.864;12.096;2022-11-20T10:59:15;28.60;;;17.07;;
11211;SDS011;5663;50.864;12.096;2022-11-20T11:02:12;36.77;;;19.50;;
11211;SDS011;5663;50.864;12.096;2022-11-20T11:04:43;29.57;;;17.87;;
11211;SDS011;5663;50.864;12.096;2022-11-20T11:07:15;28.17;;;17.93;;
11211;SDS011;5663;50.864;12.096;2022-11-20T11:09:49;32.83;;;19.40;;
11211;SDS011;5663;50.864;12.096;2022-11-20T11:12:19;30.97;;;17.93;;
11211;SDS011;5663;50.864;12.096;2022-11-20T11:14:51;31.53;;;18.57;;
11211;SDS011;5663;50.864;12.096;2022-11-20T11:17:23;27.80;;;17.33;;
11211;SDS011;5663;50.864;12.096;2022-11-20T11:20:14;33.00;;;19.47;;
11211;SDS011;5663;50.864;12.096;2022-11-20T11:22:44;29.53;;;17.93;;
11211;SDS011;5663;50.864;12.096;2022-11-20T11:25:21;28.90;;;18.37;;
11211;SDS011;5663;50.864;12.096;2022-11-20T11:27:51;27.97;;;17.07;;
11211;SDS011;5663;50.864;12.096;2022-11-20T11:30:22;34.33;;;19.67;;
11211;SDS011;5663;50.864;12.096;2022-11-20T11:33:03;28.53;;;18.03;;
11211;SDS011;5663;50.864;12.096;2022-11-20T11:35:33;31.33;;;17.87;;
11211;SDS011;5663;50.864;12.096;2022-11-20T11:38:03;28.70;;;17.43;;
11211;SDS011;5663;50.864;12.096;2022-11-20T11:40:34;34.43;;;19.93;;
11211;SDS011;5663;50.864;12.096;2022-11-20T11:43:05;29.93;;;17.70;;
11211;SDS011;5663;50.864;12.096;2022-11-20T11:45:54;28.63;;;18.07;;
11211;SDS011;5663;50.864;12.096;2022-11-20T11:48:23;31.33;;;19.00;;
11211;SDS011;5663;50.864;12.096;2022-11-20T11:50:51;29.57;;;18.33;;
11211;SDS011;5663;50.864;12.096;2022-11-20T11:53:20;29.83;;;18.30;;
11211;SDS011;5663;50.864;12.096;2022-11-20T11:55:51;33.10;;;19.30;;
11211;SDS011;5663;50.864;12.096;2022-11-20T11:58:34;30.17;;;18.60;;
11211;SDS011;5663;50.864;12.096;2022-11-20T12:01:14;28.60;;;17.23;;
11211;SDS011;5663;50.864;12.096;2022-11-20T12:03:53;30.50;;;17.90;;
11211;SDS011;5663;50.864;12.096;2022-11-20T12:06:29;27.37;;;16.23;;
11211;SDS011;5663;50.864;12.096;2022-11-20T12:09:02;23.60;;;15.70;;
11211;SDS011;5663;50.864;12.096;2022-11-20T12:11:34;28.37;;;16.77;;
11211;SDS011;5663;50.864;12.096;2022-11-20T12:14:11;28.80;;;16.77;;
11211;SDS011;5663;50.864;12.096;2022-11-20T12:16:45;31.57;;;17.63;;
11211;SDS011;5663;50.864;12.096;2022-11-20T12:19:14;25.63;;;15.80;;
11211;SDS011;5663;50.864;12.096;2022-11-20T12:21:47;29.10;;;18.30;;
11211;SDS011;5663;50.864;12.096;2022-11-20T12:24:29;22.37;;;13.53;;
11211;SDS011;5663;50.864;12.096;2022-11-20T12:30:09;23.07;;;14.57;;
11211;SDS011;5663;50.864;12.096;2022-11-20T12:32:45;24.30;;;15.73;;
11211;SDS011;5663;50.864;12.096;2022-11-20T12:35:32;26.53;;;16.33;;
11211;SDS011;5663;50.864;12.096;2022-11-20T12:41:15;23.17;;;15.10;;
11211;SDS011;5663;50.864;12.096;2022-11-20T12:44:06;23.93;;;14.73;;
11211;SDS011;5663;50.864;12.096;2022-11-20T12:47:08;26.77;;;16.00;;
11211;SDS011;5663;50.864;12.096;2022-11-20T12:49:51;26.43;;;15.40;;
11211;SDS011;5663;50.864;12.096;2022-11-20T12:52:34;26.17;;;16.27;;
11211;SDS011;5663;50.864;12.096;2022-11-20T12:55:21;26.10;;;16.53;;
11211;SDS011;5663;50.864;12.096;2022-11-20T12:57:57;27.50;;;15.67;;
11211;SDS011;5663;50.864;12.096;2022-11-20T13:00:30;26.23;;;16.27;;
11211;SDS011;5663;50.864;12.096;2022-11-20T13:03:15;24.50;;;14.50;;
11211;SDS011;5663;50.864;12.096;2022-11-20T13:06:04;22.63;;;13.57;;
11211;SDS011;5663;50.864;12.096;2022-11-20T13:08:40;22.83;;;13.77;;
11211;SDS011;5663;50.864;12.096;2022-11-20T13:11:14;20.03;;;12.97;;
11211;SDS011;5663;50.864;12.096;2022-11-20T13:13:55;22.47;;;14.10;;
11211;SDS011;5663;50.864;12.096;2022-11-20T13:16:42;19.40;;;12.07;;
11211;SDS011;5663;50.864;12.096;2022-11-20T13:19:16;23.93;;;13.97;;
11211;SDS011;5663;50.864;12.096;2022-11-20T13:21:46;18.07;;;11.63;;
11211;SDS011;5663;50.864;12.096;2022-11-20T13:24:24;22.07;;;13.30;;
11211;SDS011;5663;50.864;12.096;2022-11-20T13:27:03;20.00;;;12.87;;
11211;SDS011;5663;50.864;12.096;2022-11-20T13:29:33;17.83;;;11.97;;
11211;SDS011;5663;50.864;12.096;2022-11-20T13:32:03;19.80;;;12.53;;
11211;SDS011;5663;50.864;12.096;2022-11-20T13:34:33;19.73;;;12.87;;
11211;SDS011;5663;50.864;12.096;2022-11-20T13:37:02;17.57;;;11.73;;
11211;SDS011;5663;50.864;12.096;2022-11-20T13:39:32;19.43;;;11.73;;
11211;SDS011;5663;50.864;12.096;2022-11-20T13:42:02;17.67;;;11.00;;
11211;SDS011;5663;50.864;12.096;2022-11-20T13:44:51;17.07;;;11.30;;
11211;SDS011;5663;50.864;12.096;2022-11-20T13:47:21;18.33;;;11.07;;
11211;SDS011;5663;50.864;12.096;2022-11-20T13:49:51;18.90;;;12.50;;
11211;SDS011;5663;50.864;12.096;2022-11-20T13:52:27;19.50;;;12.17;;
11211;SDS011;5663;50.864;12.096;2022-11-20T13:55:19;19.33;;;12.40;;
11211;SDS011;5663;50.864;12.096;2022-11-20T14:00:48;19.50;;;12.40;;
11211;SDS011;5663;50.864;12.096;2022-11-20T14:03:22;18.80;;;11.43;;
11211;SDS011;5663;50.864;12.096;2022-11-20T14:05:52;25.70;;;16.07;;
11211;SDS011;5663;50.864;12.096;2022-11-20T14:08:26;23.37;;;14.50;;
11211;SDS011;5663;50.864;12.096;2022-11-20T14:11:05;20.70;;;12.50;;
11211;SDS011;5663;50.864;12.096;2022-11-20T14:13:50;19.07;;;12.77;;
11211;SDS011;5663;50.864;12.096;2022-11-20T14:16:20;20.37;;;12.07;;
11211;SDS011;5663;50.864;12.096;2022-11-20T14:18:50;19.83;;;12.30;;
11211;SDS011;5663;50.864;12.096;2022-11-20T14:21:22;20.37;;;12.27;;
11211;SDS011;5663;50.864;12.096;2022-11-20T14:24:02;21.80;;;13.43;;
11211;SDS011;5663;50.864;12.096;2022-11-20T14:26:32;19.53;;;12.57;;
11211;SDS011;5663;50.864;12.096;2022-11-20T14:29:01;20.70;;;12.80;;
11211;SDS011;5663;50.864;12.096;2022-11-20T14:31:30;24.73;;;15.00;;
11211;SDS011;5663;50.864;12.096;2022-11-20T14:33:58;23.03;;;13.53;;
11211;SDS011;5663;50.864;12.096;2022-11-20T14:36:28;20.40;;;12.73;;
11211;SDS011;5663;50.864;12.096;2022-11-20T14:38:57;21.33;;;12.93;;
11211;SDS011;5663;50.864;12.096;2022-11-20T14:41:27;20.97;;;12.93;;
11211;SDS011;5663;50.864;12.096;2022-11-20T14:43:59;20.57;;;13.13;;
11211;SDS011;5663;50.864;12.096;2022-11-20T14:46:29;20.23;;;12.50;;
11211;SDS011;5663;50.864;12.096;2022-11-20T14:49:01;20.63;;;12.70;;
11211;SDS011;5663;50.864;12.096;2022-11-20T14:51:31;22.73;;;13.63;;
11211;SDS011;5663;50.864;12.096;2022-11-20T14:54:10;19.33;;;12.23;;
11211;SDS011;5663;50.864;12.096;2022-11-20T14:56:38;18.80;;;11.37;;
11211;SDS011;5663;50.864;12.096;2022-11-20T14:59:09;20.10;;;12.53;;